createdAt,value
2019-02-06T00:01:05.064Z,-4.92
2019-02-06T00:03:36.431Z,-5.10
2019-02-06T00:06:06.724Z,-5.12
2019-02-06T00:08:36.842Z,-5.26
2019-02-06T00:11:07.050Z,-5.12
2019-02-06T00:13:37.150Z,-5.23
2019-02-06T00:16:07.390Z,-5.25
2019-02-06T00:18:37.562Z,-5.26
2019-02-06T00:21:07.687Z,-5.19
2019-02-06T00:23:37.859Z,-5.24
2019-02-06T00:26:07.977Z,-5.19
2019-02-06T00:28:38.086Z,-5.33
2019-02-06T00:31:08.327Z,-5.34
2019-02-06T00:33:38.437Z,-5.41
2019-02-06T00:36:08.558Z,-5.41
2019-02-06T00:38:38.681Z,-5.42
2019-02-06T00:41:09.328Z,-5.53
2019-02-06T00:43:39.427Z,-5.54
2019-02-06T00:46:09.576Z,-5.43
2019-02-06T00:48:39.726Z,-5.24
2019-02-06T00:51:09.875Z,-5.16
2019-02-06T00:53:39.988Z,-5.12
2019-02-06T00:56:10.166Z,-5.07
2019-02-06T00:58:40.279Z,-5.06
2019-02-06T01:01:10.395Z,-4.97
2019-02-06T01:03:40.682Z,-4.91
2019-02-06T01:06:10.820Z,-4.86
2019-02-06T01:08:41.266Z,-4.86
2019-02-06T01:11:11.386Z,-4.80
2019-02-06T01:13:41.487Z,-4.75
2019-02-06T01:16:11.618Z,-4.72
2019-02-06T01:18:41.753Z,-4.83
2019-02-06T01:21:11.934Z,-4.81
2019-02-06T01:23:42.044Z,-4.80
2019-02-06T01:26:12.232Z,-4.88
2019-02-06T01:28:42.508Z,-4.87
2019-02-06T01:31:27.427Z,-4.88
2019-02-06T01:33:57.522Z,-4.87
2019-02-06T01:36:27.943Z,-4.87
2019-02-06T01:38:58.645Z,-4.92
2019-02-06T01:41:28.796Z,-4.94
2019-02-06T01:43:58.901Z,-4.93
2019-02-06T01:46:29.026Z,-4.95
2019-02-06T01:48:59.287Z,-4.97
2019-02-06T01:51:29.355Z,-4.97
2019-02-06T01:53:59.513Z,-4.96
2019-02-06T01:56:29.647Z,-4.98
2019-02-06T01:58:59.755Z,-5.01
2019-02-06T02:01:29.878Z,-5.04
2019-02-06T02:03:59.996Z,-5.09
2019-02-06T02:06:30.177Z,-5.13
2019-02-06T02:09:01.579Z,-5.12
2019-02-06T02:11:32.694Z,-5.15
2019-02-06T02:14:02.873Z,-5.16
2019-02-06T02:16:33.342Z,-5.15
2019-02-06T02:19:04.154Z,-5.16
2019-02-06T02:21:35.100Z,-5.23
2019-02-06T02:24:05.259Z,-5.23
2019-02-06T02:26:35.383Z,-5.28
2019-02-06T02:29:05.802Z,-5.36
2019-02-06T02:31:36.890Z,-5.43
2019-02-06T02:34:06.995Z,-5.60
2019-02-06T02:36:37.110Z,-5.68
2019-02-06T02:39:09.743Z,-5.77
2019-02-06T02:41:39.874Z,-5.80
2019-02-06T02:44:09.988Z,-5.70
2019-02-06T02:46:40.337Z,-5.64
2019-02-06T02:49:10.441Z,-5.63
2019-02-06T02:51:44.127Z,-5.62
2019-02-06T02:54:12.369Z,-5.63
2019-02-06T02:56:42.487Z,-5.68
2019-02-06T02:59:12.596Z,-5.71
2019-02-06T03:01:53.238Z,-5.75
2019-02-06T03:04:30.218Z,-5.80
2019-02-06T03:07:00.323Z,-6.00
2019-02-06T03:09:30.434Z,-6.10
2019-02-06T03:12:00.536Z,-6.19
2019-02-06T03:14:30.629Z,-6.29
2019-02-06T03:17:03.260Z,-6.38
2019-02-06T03:19:32.600Z,-6.44
2019-02-06T03:22:02.715Z,-6.51
2019-02-06T03:24:32.894Z,-6.55
2019-02-06T03:27:03.027Z,-6.63
2019-02-06T03:29:33.132Z,-6.66
2019-02-06T03:32:03.237Z,-6.70
2019-02-06T03:34:33.340Z,-6.71
2019-02-06T03:37:04.159Z,-6.71
2019-02-06T03:39:34.582Z,-6.70
2019-02-06T03:42:06.133Z,-6.73
2019-02-06T03:44:36.396Z,-6.79
2019-02-06T03:47:06.502Z,-6.81
2019-02-06T03:49:36.618Z,-6.87
2019-02-06T03:52:06.814Z,-6.92
2019-02-06T03:54:36.920Z,-6.96
2019-02-06T03:57:07.038Z,-6.98
2019-02-06T03:59:37.141Z,-7.04
2019-02-06T04:02:07.507Z,-7.18
2019-02-06T04:04:38.161Z,-7.40
2019-02-06T04:07:08.248Z,-7.35
2019-02-06T04:09:38.360Z,-7.30
2019-02-06T04:12:08.822Z,-7.27
2019-02-06T04:14:38.938Z,-7.31
2019-02-06T04:17:09.080Z,-7.35
2019-02-06T04:19:40.276Z,-7.33
2019-02-06T04:22:10.794Z,-7.31
2019-02-06T04:24:40.914Z,-7.31
2019-02-06T04:27:11.026Z,-7.45
2019-02-06T04:29:41.167Z,-7.80
2019-02-06T04:32:11.290Z,-7.83
2019-02-06T04:34:41.415Z,-7.90
2019-02-06T04:37:11.517Z,-7.96
2019-02-06T04:39:41.896Z,-7.96
2019-02-06T04:42:12.322Z,-7.99
2019-02-06T04:44:42.453Z,-8.01
2019-02-06T04:47:12.559Z,-8.01
2019-02-06T04:49:43.185Z,-7.98
2019-02-06T04:52:13.416Z,-7.98
2019-02-06T04:54:43.534Z,-8.04
2019-02-06T04:57:13.844Z,-8.02
2019-02-06T04:59:43.970Z,-8.05
2019-02-06T05:02:14.079Z,-8.10
2019-02-06T05:04:44.581Z,-8.15
2019-02-06T05:07:19.462Z,-8.21
2019-02-06T05:09:46.643Z,-8.29
2019-02-06T05:12:16.774Z,-8.37
2019-02-06T05:14:46.927Z,-8.42
2019-02-06T05:17:17.028Z,-8.44
2019-02-06T05:19:48.170Z,-8.42
2019-02-06T05:22:18.292Z,-8.39
2019-02-06T05:24:48.401Z,-8.41
2019-02-06T05:27:18.515Z,-8.69
2019-02-06T05:29:48.723Z,-8.59
2019-02-06T05:32:18.898Z,-8.59
2019-02-06T05:34:49.125Z,-8.61
2019-02-06T05:37:31.692Z,-8.63
2019-02-06T05:39:52.702Z,-8.65
2019-02-06T05:42:22.858Z,-8.68
2019-02-06T05:44:52.976Z,-8.66
2019-02-06T05:47:23.516Z,-8.65
2019-02-06T05:49:53.646Z,-8.77
2019-02-06T05:52:23.787Z,-9.00
2019-02-06T05:54:53.927Z,-8.98
2019-02-06T05:57:24.048Z,-8.97
2019-02-06T05:59:54.216Z,-9.00
2019-02-06T06:02:25.004Z,-9.25
2019-02-06T06:04:55.940Z,-9.35
2019-02-06T06:07:26.109Z,-9.28
2019-02-06T06:09:57.051Z,-9.19
2019-02-06T06:12:27.179Z,-9.18
2019-02-06T06:14:57.337Z,-9.19
2019-02-06T06:17:27.794Z,-9.10
2019-02-06T06:19:57.901Z,-8.99
2019-02-06T06:22:28.131Z,-9.06
2019-02-06T06:24:58.370Z,-9.10
2019-02-06T06:27:28.577Z,-9.16
2019-02-06T06:29:58.704Z,-9.27
2019-02-06T06:32:31.825Z,-9.36
2019-02-06T06:35:00.870Z,-9.39
2019-02-06T06:37:31.023Z,-9.46
2019-02-06T06:40:01.141Z,-9.48
2019-02-06T06:42:31.254Z,-9.52
2019-02-06T06:45:01.750Z,-9.53
2019-02-06T06:47:32.044Z,-9.54
2019-02-06T06:50:02.185Z,-9.57
2019-02-06T06:52:32.323Z,-9.57
2019-02-06T06:55:03.397Z,-9.58
2019-02-06T06:57:33.524Z,-9.59
2019-02-06T07:00:04.786Z,-9.60
2019-02-06T07:02:34.922Z,-9.64
2019-02-06T07:05:08.364Z,-9.66
2019-02-06T07:07:39.574Z,-9.72
2019-02-06T07:10:12.223Z,-9.77
2019-02-06T07:12:42.216Z,-9.75
2019-02-06T07:15:16.513Z,-9.72
2019-02-06T07:17:46.631Z,-9.71
2019-02-06T07:20:17.696Z,-9.66
2019-02-06T07:22:47.821Z,-9.62
2019-02-06T07:25:18.672Z,-9.56
2019-02-06T07:27:48.832Z,-9.51
2019-02-06T07:30:33.525Z,-9.47
2019-02-06T07:33:03.665Z,-9.44
2019-02-06T07:35:33.794Z,-9.39
2019-02-06T07:38:03.880Z,-9.35
2019-02-06T07:40:33.995Z,-9.41
2019-02-06T07:43:04.108Z,-9.34
2019-02-06T07:45:34.376Z,-9.28
2019-02-06T07:48:04.598Z,-9.20
2019-02-06T07:50:35.328Z,-9.16
2019-02-06T07:53:06.524Z,-9.09
2019-02-06T07:55:36.618Z,-9.06
2019-02-06T07:58:06.771Z,-9.04
2019-02-06T08:00:37.956Z,-9.00
2019-02-06T08:03:08.082Z,-8.95
2019-02-06T08:05:38.553Z,-8.93
2019-02-06T08:08:08.686Z,-8.91
2019-02-06T08:10:38.828Z,-8.84
2019-02-06T08:13:09.049Z,-8.77
2019-02-06T08:15:39.235Z,-8.66
2019-02-06T08:18:09.330Z,-8.59
2019-02-06T08:20:39.718Z,-8.45
2019-02-06T08:23:09.873Z,-8.35
2019-02-06T08:25:39.975Z,-8.28
2019-02-06T08:28:10.085Z,-8.18
2019-02-06T08:30:41.295Z,-8.14
2019-02-06T08:33:11.437Z,-8.06
2019-02-06T08:35:41.537Z,-8.01
2019-02-06T08:38:11.667Z,-7.94
2019-02-06T08:40:41.780Z,-7.87
2019-02-06T08:43:11.888Z,-8.09
2019-02-06T08:45:41.996Z,-8.05
2019-02-06T08:48:12.412Z,-7.97
2019-02-06T08:50:42.551Z,-7.85
2019-02-06T08:53:12.681Z,-7.72
2019-02-06T08:55:42.806Z,-7.63
2019-02-06T08:58:12.943Z,-7.57
2019-02-06T09:00:43.046Z,-7.43
2019-02-06T09:03:14.863Z,-7.30
2019-02-06T09:05:45.100Z,-7.18
2019-02-06T09:08:15.316Z,-7.13
2019-02-06T09:10:45.507Z,-7.11
2019-02-06T09:13:15.676Z,-6.98
2019-02-06T09:15:45.772Z,-6.90
2019-02-06T09:18:15.891Z,-6.78
2019-02-06T09:20:45.983Z,-6.95
2019-02-06T09:23:16.107Z,-7.00
2019-02-06T09:25:46.235Z,-6.78
2019-02-06T09:28:16.414Z,-6.72
2019-02-06T09:30:46.902Z,-6.69
2019-02-06T09:33:17.023Z,-6.77
2019-02-06T09:35:47.126Z,-7.01
2019-02-06T09:38:17.251Z,-6.73
2019-02-06T09:40:49.483Z,-6.62
2019-02-06T09:43:19.177Z,-6.42
2019-02-06T09:45:49.557Z,-6.48
2019-02-06T09:48:19.688Z,-6.34
2019-02-06T09:50:49.793Z,-6.31
2019-02-06T09:53:19.917Z,-6.33
2019-02-06T09:55:50.110Z,-6.12
2019-02-06T09:58:21.868Z,-5.97
2019-02-06T10:00:51.971Z,-5.81
2019-02-06T10:03:22.161Z,-5.74
2019-02-06T10:05:52.388Z,-5.67
2019-02-06T10:08:22.597Z,-5.60
2019-02-06T10:10:52.700Z,-5.41
2019-02-06T10:13:22.839Z,-5.27
2019-02-06T10:15:53.005Z,-5.23
2019-02-06T10:18:23.114Z,-5.16
2019-02-06T10:20:53.473Z,-5.10
2019-02-06T10:23:23.553Z,-4.98
2019-02-06T10:25:53.910Z,-4.87
2019-02-06T10:28:24.705Z,-4.78
2019-02-06T10:30:54.837Z,-4.75
2019-02-06T10:33:24.943Z,-4.70
2019-02-06T10:35:55.072Z,-4.61
2019-02-06T10:38:25.182Z,-4.47
2019-02-06T10:40:55.280Z,-4.63
2019-02-06T10:43:32.022Z,-4.55
2019-02-06T10:45:57.197Z,-4.55
2019-02-06T10:48:27.295Z,-4.38
2019-02-06T10:50:58.599Z,-4.34
2019-02-06T10:53:29.784Z,-4.30
2019-02-06T10:56:00.372Z,-4.25
2019-02-06T10:58:30.484Z,-4.28
2019-02-06T11:01:02.601Z,-4.17
2019-02-06T11:03:32.709Z,-4.02
2019-02-06T11:06:03.790Z,-3.96
2019-02-06T11:08:34.135Z,-4.00
2019-02-06T11:11:04.341Z,-3.90
2019-02-06T11:13:34.446Z,-3.79
2019-02-06T11:16:04.567Z,-3.76
2019-02-06T11:18:35.274Z,-3.64
2019-02-06T11:21:05.899Z,-3.59
2019-02-06T11:23:35.981Z,-3.64
2019-02-06T11:26:06.298Z,-3.78
2019-02-06T11:28:37.383Z,-3.50
2019-02-06T11:31:07.508Z,-3.37
2019-02-06T11:33:37.639Z,-3.31
2019-02-06T11:36:07.744Z,-3.35
2019-02-06T11:38:38.128Z,-3.30
2019-02-06T11:41:08.329Z,-3.33
2019-02-06T11:43:38.419Z,-3.66
2019-02-06T11:46:09.243Z,-3.52
2019-02-06T11:48:39.479Z,-3.39
2019-02-06T11:51:09.569Z,-3.21
2019-02-06T11:53:39.689Z,-3.34
2019-02-06T11:56:09.789Z,-3.35
2019-02-06T11:58:39.886Z,-3.29
2019-02-06T12:01:16.487Z,-3.07
2019-02-06T12:03:47.722Z,-3.06
2019-02-06T12:06:18.014Z,-2.90
2019-02-06T12:08:48.132Z,-2.83
2019-02-06T12:11:18.254Z,-2.91
2019-02-06T12:13:48.371Z,-2.78
2019-02-06T12:16:18.790Z,-2.67
2019-02-06T12:18:48.911Z,-2.62
2019-02-06T12:21:19.028Z,-2.56
2019-02-06T12:23:49.142Z,-2.47
2019-02-06T12:26:19.261Z,-2.41
2019-02-06T12:28:49.359Z,-2.33
2019-02-06T12:31:19.473Z,-2.28
2019-02-06T12:33:49.573Z,-2.29
2019-02-06T12:36:19.697Z,-2.21
2019-02-06T12:38:53.452Z,-2.23
2019-02-06T12:41:21.603Z,-2.26
2019-02-06T12:43:51.772Z,-2.19
2019-02-06T12:46:21.928Z,-2.24
2019-02-06T12:48:52.054Z,-2.12
2019-02-06T12:51:22.561Z,-2.19
2019-02-06T12:53:52.670Z,-2.21
2019-02-06T12:56:22.812Z,-2.07
2019-02-06T12:58:53.979Z,-2.11
2019-02-06T13:01:24.110Z,-2.04
2019-02-06T13:03:54.224Z,-2.14
2019-02-06T13:06:24.601Z,-2.15
2019-02-06T13:08:54.711Z,-2.11
2019-02-06T13:11:24.843Z,-2.16
2019-02-06T13:13:55.054Z,-2.16
2019-02-06T13:16:25.179Z,-2.26
2019-02-06T13:18:55.267Z,-2.27
2019-02-06T13:21:25.383Z,-2.40
2019-02-06T13:23:55.507Z,-2.40
2019-02-06T13:26:25.602Z,-2.33
2019-02-06T13:28:55.736Z,-2.27
2019-02-06T13:31:25.867Z,-2.16
2019-02-06T13:33:56.175Z,-2.28
2019-02-06T13:36:26.491Z,-2.27
2019-02-06T13:38:56.643Z,-2.21
2019-02-06T13:41:26.875Z,-2.20
2019-02-06T13:43:57.289Z,-2.15
2019-02-06T13:46:27.467Z,-2.20
2019-02-06T13:48:59.976Z,-2.26
2019-02-06T13:51:30.077Z,-2.24
2019-02-06T13:54:00.223Z,-2.30
2019-02-06T13:56:30.627Z,-2.32
2019-02-06T13:59:00.742Z,-2.30
2019-02-06T14:01:30.845Z,-2.23
2019-02-06T14:04:00.964Z,-2.21
2019-02-06T14:06:31.132Z,-2.37
2019-02-06T14:09:01.237Z,-2.36
2019-02-06T14:11:32.975Z,-2.23
2019-02-06T14:14:03.155Z,-2.19
2019-02-06T14:16:33.447Z,-2.07
2019-02-06T14:19:03.575Z,-2.02
2019-02-06T14:21:33.678Z,-1.93
2019-02-06T14:24:14.003Z,-1.86
2019-02-06T14:27:12.580Z,-1.91
2019-02-06T14:30:20.394Z,-1.97
2019-02-06T14:33:00.234Z,-1.88
2019-02-06T14:35:52.561Z,-1.80
2019-02-06T14:38:54.202Z,-1.70
2019-02-06T14:41:59.795Z,-1.71
2019-02-06T14:44:52.587Z,-1.76
2019-02-06T14:47:54.194Z,-1.87
2019-02-06T14:51:16.338Z,-2.01
2019-02-06T14:53:56.044Z,-2.10
2019-02-06T14:57:06.263Z,-2.00
2019-02-06T15:00:09.580Z,-1.88
2019-02-06T15:03:10.071Z,-1.81
2019-02-06T15:06:10.055Z,-1.68
2019-02-06T15:09:02.588Z,-1.62
2019-02-06T15:12:00.626Z,-1.71
2019-02-06T15:14:51.209Z,-1.64
2019-02-06T15:18:04.492Z,-1.74
2019-02-06T15:20:41.795Z,-1.60
2019-02-06T15:23:53.659Z,-1.81
2019-02-06T15:27:05.251Z,-1.91
2019-02-06T15:30:07.241Z,-1.80
2019-02-06T15:33:36.728Z,-1.88
2019-02-06T15:36:50.619Z,-1.80
2019-02-06T15:39:57.556Z,-1.62
2019-02-06T15:42:49.641Z,-1.70
2019-02-06T15:45:34.025Z,-1.71
2019-02-06T15:48:28.803Z,-1.73
2019-02-06T15:51:23.078Z,-1.60
2019-02-06T15:54:23.352Z,-1.87
2019-02-06T15:57:49.814Z,-1.71
2019-02-06T16:00:55.286Z,-1.52
2019-02-06T16:04:23.171Z,-1.57
2019-02-06T16:07:19.907Z,-1.58
2019-02-06T16:10:25.983Z,-1.72
2019-02-06T16:13:22.298Z,-1.67
2019-02-06T16:16:17.686Z,-1.46
2019-02-06T16:19:31.533Z,-1.54
2019-02-06T16:22:37.306Z,-1.37
2019-02-06T16:25:37.845Z,-1.30
2019-02-06T16:28:52.059Z,-1.39
2019-02-06T16:31:56.816Z,-1.24
2019-02-06T16:34:51.937Z,-1.28
2019-02-06T16:38:11.945Z,-1.16
2019-02-06T16:41:21.789Z,-1.14
2019-02-06T16:44:31.972Z,-1.23
2019-02-06T16:47:44.768Z,-1.29
2019-02-06T16:50:37.853Z,-1.31
2019-02-06T16:53:27.723Z,-1.43
2019-02-06T16:56:33.948Z,-1.37
2019-02-06T17:00:03.283Z,-1.33
2019-02-06T17:03:17.489Z,-1.26
2019-02-06T17:06:07.348Z,-1.14
2019-02-06T17:09:23.021Z,-1.01
2019-02-06T17:12:19.632Z,-1.05
2019-02-06T17:15:29.124Z,-1.02
2019-02-06T17:18:30.059Z,-1.10
2019-02-06T17:21:32.676Z,-1.00
2019-02-06T17:24:24.265Z,-0.88
2019-02-06T17:27:20.766Z,-0.85
2019-02-06T17:30:20.620Z,-0.86
2019-02-06T17:33:19.189Z,-0.77
2019-02-06T17:36:23.653Z,-0.70
2019-02-06T17:39:59.443Z,-0.66
2019-02-06T17:42:57.627Z,-0.60
2019-02-06T17:46:16.806Z,-0.57
2019-02-06T17:49:19.919Z,-0.56
2019-02-06T17:52:15.836Z,-0.55
2019-02-06T17:55:18.963Z,-0.58
2019-02-06T17:57:54.097Z,-0.57
2019-02-06T18:00:55.063Z,-0.61
2019-02-06T18:03:27.071Z,-0.52
2019-02-06T18:05:57.526Z,-0.48
2019-02-06T18:08:27.676Z,-0.55
2019-02-06T18:10:58.817Z,-0.49
2019-02-06T18:13:28.999Z,-0.47
2019-02-06T18:15:59.181Z,-0.40
2019-02-06T18:18:29.542Z,-0.34
2019-02-06T18:20:59.660Z,-0.31
2019-02-06T18:23:29.771Z,-0.30
2019-02-06T18:25:59.986Z,-0.36
2019-02-06T18:28:30.091Z,-0.27
2019-02-06T18:31:00.211Z,-0.27
2019-02-06T18:33:30.617Z,-0.30
2019-02-06T18:36:00.833Z,-0.25
2019-02-06T18:38:32.249Z,-0.30
2019-02-06T18:41:02.448Z,-0.20
2019-02-06T18:43:32.564Z,-0.24
2019-02-06T18:46:03.078Z,-0.18
2019-02-06T18:48:33.266Z,-0.09
2019-02-06T18:51:03.713Z,-0.16
2019-02-06T18:53:33.811Z,-0.12
2019-02-06T18:56:03.969Z,-0.04
2019-02-06T18:58:34.079Z,0.02
2019-02-06T19:01:05.351Z,0.08
2019-02-06T19:03:39.104Z,0.06
2019-02-06T19:06:09.797Z,0.14
2019-02-06T19:08:40.320Z,0.12
2019-02-06T19:11:10.408Z,0.08
2019-02-06T19:13:40.746Z,0.17
2019-02-06T19:16:11.933Z,0.15
2019-02-06T19:18:42.041Z,0.20
2019-02-06T19:21:13.130Z,0.11
2019-02-06T19:23:43.255Z,0.14
2019-02-06T19:26:13.367Z,0.24
2019-02-06T19:28:43.452Z,0.29
2019-02-06T19:31:13.583Z,0.19
2019-02-06T19:33:43.666Z,0.22
2019-02-06T19:36:13.779Z,0.19
2019-02-06T19:38:46.122Z,0.20
2019-02-06T19:41:16.127Z,0.16
2019-02-06T19:43:46.241Z,0.17
2019-02-06T19:46:16.375Z,0.18
2019-02-06T19:48:46.490Z,0.19
2019-02-06T19:51:16.627Z,0.22
2019-02-06T19:53:47.704Z,0.19
2019-02-06T19:56:17.819Z,0.29
2019-02-06T19:58:47.918Z,0.24
2019-02-06T20:01:18.072Z,0.28
2019-02-06T20:03:48.237Z,0.49
2019-02-06T20:06:34.160Z,0.40
2019-02-06T20:09:11.912Z,0.53
2019-02-06T20:11:42.367Z,0.45
2019-02-06T20:14:12.492Z,0.42
2019-02-06T20:16:42.782Z,0.47
2019-02-06T20:19:12.971Z,0.52
2019-02-06T20:21:43.466Z,0.49
2019-02-06T20:24:16.727Z,0.53
2019-02-06T20:26:46.834Z,0.49
2019-02-06T20:29:17.064Z,0.67
2019-02-06T20:31:47.239Z,0.71
2019-02-06T20:34:17.474Z,0.78
2019-02-06T20:36:47.979Z,0.83
2019-02-06T20:39:18.122Z,0.75
2019-02-06T20:41:48.251Z,0.73
2019-02-06T20:44:18.566Z,0.73
2019-02-06T20:46:48.680Z,0.73
2019-02-06T20:49:19.046Z,0.82
2019-02-06T20:51:49.439Z,0.81
2019-02-06T20:54:19.561Z,0.78
2019-02-06T20:56:49.705Z,0.91
2019-02-06T20:59:19.904Z,0.87
2019-02-06T21:01:50.016Z,0.99
2019-02-06T21:04:20.126Z,0.91
2019-02-06T21:06:51.296Z,0.97
2019-02-06T21:09:21.428Z,0.99
2019-02-06T21:11:51.574Z,1.04
2019-02-06T21:14:21.780Z,1.03
2019-02-06T21:16:51.928Z,1.11
2019-02-06T21:19:22.037Z,0.70
2019-02-06T21:21:53.594Z,1.13
2019-02-06T21:24:23.716Z,1.19
2019-02-06T21:26:53.805Z,1.24
2019-02-06T21:29:23.925Z,1.21
2019-02-06T21:31:54.035Z,1.28
2019-02-06T21:34:25.224Z,1.30
2019-02-06T21:36:55.334Z,1.23
2019-02-06T21:39:25.486Z,1.27
2019-02-06T21:41:57.873Z,1.23
2019-02-06T21:44:28.039Z,1.33
2019-02-06T21:46:58.127Z,1.27
2019-02-06T21:49:28.537Z,1.33
2019-02-06T21:51:58.718Z,1.36
2019-02-06T21:54:28.876Z,1.10
2019-02-06T21:56:58.963Z,1.33
2019-02-06T21:59:29.090Z,1.33
2019-02-06T22:01:59.199Z,1.24
2019-02-06T22:04:29.474Z,1.34
2019-02-06T22:06:59.576Z,1.18
2019-02-06T22:09:29.713Z,1.26
2019-02-06T22:11:59.853Z,1.35
2019-02-06T22:14:29.965Z,1.26
2019-02-06T22:17:00.740Z,1.34
2019-02-06T22:19:30.845Z,1.26
2019-02-06T22:22:01.521Z,1.33
2019-02-06T22:24:31.719Z,1.41
2019-02-06T22:27:01.815Z,1.43
2019-02-06T22:29:31.941Z,1.49
2019-02-06T22:32:02.127Z,1.42
2019-02-06T22:34:32.227Z,1.45
2019-02-06T22:37:02.338Z,1.52
2019-02-06T22:39:32.455Z,1.54
2019-02-06T22:42:02.567Z,1.40
2019-02-06T22:44:32.679Z,1.34
2019-02-06T22:47:02.791Z,1.43
2019-02-06T22:49:32.886Z,1.49
2019-02-06T22:52:02.980Z,1.45
2019-02-06T22:54:33.136Z,1.50
2019-02-06T22:57:04.291Z,1.45
2019-02-06T22:59:34.704Z,1.46
2019-02-06T23:02:05.749Z,1.35
2019-02-06T23:04:35.868Z,1.32
2019-02-06T23:07:07.227Z,1.38
2019-02-06T23:09:37.509Z,1.42
2019-02-06T23:12:08.143Z,1.55
2019-02-06T23:14:38.248Z,1.61
2019-02-06T23:17:08.380Z,1.60
2019-02-06T23:19:38.494Z,1.69
2019-02-06T23:22:10.752Z,1.61
2019-02-06T23:24:40.876Z,1.67
2019-02-06T23:27:11.022Z,1.63
2019-02-06T23:29:41.126Z,1.64
2019-02-06T23:32:11.388Z,1.74
2019-02-06T23:34:41.487Z,1.72
2019-02-06T23:37:13.287Z,1.77
2019-02-06T23:39:43.588Z,1.77
2019-02-06T23:42:13.731Z,1.80
2019-02-06T23:44:43.970Z,1.84
2019-02-06T23:47:14.092Z,1.81
2019-02-06T23:49:44.203Z,1.78
2019-02-06T23:52:14.380Z,1.71
2019-02-06T23:54:44.500Z,1.74
2019-02-06T23:57:14.745Z,1.80
2019-02-06T23:59:44.869Z,1.79
